createdAt,value
2018-12-12T00:02:09.844Z,1.25
2018-12-12T00:04:47.825Z,1.21
2018-12-12T00:07:35.418Z,1.20
2018-12-12T00:10:19.791Z,1.10
2018-12-12T00:13:01.770Z,1.19
2018-12-12T00:15:43.029Z,1.29
2018-12-12T00:18:24.494Z,1.26
2018-12-12T00:21:00.664Z,1.32
2018-12-12T00:23:36.423Z,1.30
2018-12-12T00:29:11.281Z,1.25
2018-12-12T00:31:51.118Z,1.20
2018-12-12T00:34:25.531Z,1.23
2018-12-12T00:37:01.985Z,1.28
2018-12-12T00:42:46.212Z,1.21
2018-12-12T00:45:24.191Z,1.17
2018-12-12T00:48:02.498Z,1.14
2018-12-12T00:50:39.202Z,1.18
2018-12-12T00:53:20.623Z,1.13
2018-12-12T00:55:55.342Z,1.30
2018-12-12T00:58:35.582Z,1.20
2018-12-12T01:01:13.746Z,1.19
2018-12-12T01:03:53.572Z,1.19
2018-12-12T01:06:31.452Z,1.19
2018-12-12T01:09:10.568Z,1.29
2018-12-12T01:12:08.071Z,1.22
2018-12-12T01:14:43.861Z,1.25
2018-12-12T01:17:24.050Z,1.22
2018-12-12T01:19:59.970Z,1.29
2018-12-12T01:22:35.379Z,1.22
2018-12-12T01:25:15.255Z,1.17
2018-12-12T01:27:53.015Z,1.26
2018-12-12T01:30:27.919Z,1.18
2018-12-12T01:33:05.558Z,1.17
2018-12-12T01:38:40.626Z,1.11
2018-12-12T01:41:18.938Z,1.17
2018-12-12T01:43:54.294Z,1.19
2018-12-12T01:46:29.952Z,1.11
2018-12-12T01:49:07.833Z,1.07
2018-12-12T01:51:48.389Z,1.17
2018-12-12T01:54:29.104Z,1.07
2018-12-12T01:57:09.530Z,1.09
2018-12-12T01:59:43.974Z,1.11
2018-12-12T02:02:19.388Z,0.93
2018-12-12T02:04:59.878Z,1.01
2018-12-12T02:07:34.623Z,1.04
2018-12-12T02:10:14.430Z,1.02
2018-12-12T02:13:11.679Z,0.92
2018-12-12T02:15:52.395Z,0.99
2018-12-12T02:18:38.938Z,0.98
2018-12-12T02:21:13.757Z,0.96
2018-12-12T02:23:50.657Z,1.09
2018-12-12T02:26:31.535Z,1.07
2018-12-12T02:32:08.177Z,0.95
2018-12-12T02:34:48.568Z,1.10
2018-12-12T02:37:29.666Z,1.09
2018-12-12T02:40:05.945Z,1.06
2018-12-12T02:42:40.583Z,1.11
2018-12-12T02:45:18.970Z,1.26
2018-12-12T02:47:55.003Z,1.28
2018-12-12T02:50:36.418Z,1.08
2018-12-12T02:53:13.152Z,1.10
2018-12-12T02:55:53.678Z,1.04
2018-12-12T02:58:28.107Z,1.07
2018-12-12T03:01:12.278Z,1.06
2018-12-12T03:12:52.114Z,1.04
2018-12-12T03:18:29.042Z,1.08
2018-12-12T03:21:03.505Z,1.08
2018-12-12T03:23:51.186Z,1.10
2018-12-12T03:26:33.887Z,1.06
2018-12-12T03:29:26.495Z,0.98
2018-12-12T03:32:06.828Z,1.05
2018-12-12T03:34:43.039Z,0.93
2018-12-12T03:40:14.763Z,0.97
2018-12-12T03:42:53.788Z,1.03
2018-12-12T03:45:28.832Z,0.99
2018-12-12T03:48:21.682Z,1.00
2018-12-12T03:50:56.130Z,0.99
2018-12-12T03:53:36.752Z,1.11
2018-12-12T03:56:12.583Z,1.08
2018-12-12T03:58:53.011Z,1.04
2018-12-12T04:01:28.260Z,1.14
2018-12-12T04:04:09.145Z,1.20
2018-12-12T04:06:48.403Z,1.15
2018-12-12T04:09:23.676Z,1.09
2018-12-12T04:11:58.209Z,1.10
2018-12-12T04:20:37.857Z,1.15
2018-12-12T04:23:12.665Z,1.08
2018-12-12T04:25:50.952Z,1.12
2018-12-12T04:28:42.198Z,1.03
2018-12-12T04:31:16.749Z,1.04
2018-12-12T04:36:58.103Z,1.00
2018-12-12T04:39:32.498Z,1.00
2018-12-12T04:42:11.339Z,1.06
2018-12-12T04:44:53.110Z,1.07
2018-12-12T04:47:30.741Z,1.07
2018-12-12T04:50:15.170Z,1.01
2018-12-12T04:52:56.153Z,1.03
2018-12-12T04:58:35.294Z,0.90
2018-12-12T05:01:16.141Z,0.84
2018-12-12T05:04:07.812Z,0.97
2018-12-12T05:09:45.017Z,0.85
2018-12-12T05:12:25.519Z,0.88
2018-12-12T05:15:20.466Z,0.86
2018-12-12T05:18:15.253Z,0.80
2018-12-12T05:20:53.264Z,0.79
2018-12-12T05:23:33.681Z,0.82
2018-12-12T05:29:05.266Z,0.83
2018-12-12T05:34:41.247Z,0.75
2018-12-12T05:37:26.580Z,0.58
2018-12-12T05:40:07.975Z,0.59
2018-12-12T05:42:48.618Z,0.69
2018-12-12T05:45:38.038Z,0.64
2018-12-12T05:48:18.318Z,0.62
2018-12-12T05:57:08.269Z,0.56
2018-12-12T05:59:55.342Z,0.59
2018-12-12T06:02:42.378Z,0.65
2018-12-12T06:05:39.275Z,0.64
2018-12-12T06:08:17.173Z,0.54
2018-12-12T06:11:15.066Z,0.55
2018-12-12T06:13:49.471Z,0.67
2018-12-12T06:16:24.049Z,0.69
2018-12-12T06:19:13.114Z,0.76
2018-12-12T06:21:49.778Z,0.68
2018-12-12T06:24:24.193Z,0.69
2018-12-12T06:27:02.009Z,0.76
2018-12-12T06:29:38.705Z,0.69
2018-12-12T06:32:19.421Z,0.67
2018-12-12T06:34:59.644Z,0.73
2018-12-12T06:37:40.310Z,0.74
2018-12-12T06:40:16.224Z,0.82
2018-12-12T06:43:01.704Z,0.85
2018-12-12T06:45:41.264Z,0.65
2018-12-12T06:48:22.725Z,0.74
2018-12-12T06:54:00.297Z,0.67
2018-12-12T06:56:34.917Z,0.81
2018-12-12T06:59:22.673Z,0.86
2018-12-12T07:01:57.671Z,0.76
2018-12-12T07:07:36.770Z,0.70
2018-12-12T07:10:17.752Z,0.61
2018-12-12T07:13:04.525Z,0.49
2018-12-12T07:15:39.566Z,0.48
2018-12-12T07:18:19.279Z,0.54
2018-12-12T07:21:06.825Z,0.57
2018-12-12T07:23:41.958Z,0.69
2018-12-12T07:29:35.992Z,0.82
2018-12-12T07:32:10.398Z,0.86
2018-12-12T07:34:51.053Z,0.87
2018-12-12T07:37:27.374Z,0.88
2018-12-12T07:43:10.741Z,0.84
2018-12-12T07:45:45.166Z,0.82
2018-12-12T07:48:19.903Z,0.84
2018-12-12T07:51:16.070Z,0.97
2018-12-12T07:53:54.128Z,1.00
2018-12-12T07:56:34.355Z,0.99
2018-12-12T07:59:09.106Z,1.06
2018-12-12T08:04:45.788Z,1.10
2018-12-12T08:10:21.053Z,1.22
2018-12-12T08:12:55.764Z,1.20
2018-12-12T08:15:30.449Z,1.28
2018-12-12T08:18:05.533Z,1.14
2018-12-12T08:20:40.722Z,1.29
2018-12-12T08:23:18.314Z,1.27
2018-12-12T08:25:53.045Z,1.17
2018-12-12T08:28:28.095Z,1.19
2018-12-12T08:31:03.093Z,1.18
2018-12-12T08:33:39.023Z,1.03
2018-12-12T08:36:15.354Z,1.06
2018-12-12T08:38:50.203Z,0.99
2018-12-12T08:41:24.785Z,0.96
2018-12-12T08:43:59.169Z,1.08
2018-12-12T08:46:34.044Z,1.16
2018-12-12T08:49:08.913Z,1.17
2018-12-12T08:51:43.257Z,1.27
2018-12-12T08:54:18.161Z,1.32
2018-12-12T08:56:53.016Z,1.41
2018-12-12T08:59:29.093Z,1.44
2018-12-12T09:02:05.482Z,1.48
2018-12-12T09:04:40.639Z,1.53
2018-12-12T09:07:15.258Z,1.49
2018-12-12T09:09:49.650Z,1.58
2018-12-12T09:12:24.119Z,1.59
2018-12-12T09:15:00.383Z,1.58
2018-12-12T09:17:34.857Z,1.61
2018-12-12T09:20:09.871Z,1.63
2018-12-12T09:22:44.697Z,1.71
2018-12-12T09:25:19.088Z,1.77
2018-12-12T09:27:54.177Z,1.77
2018-12-12T09:30:30.760Z,1.84
2018-12-12T09:33:06.605Z,1.88
2018-12-12T09:35:41.055Z,1.88
2018-12-12T09:38:15.676Z,1.70
2018-12-12T09:40:51.214Z,1.64
2018-12-12T09:43:32.846Z,1.63
2018-12-12T09:49:04.849Z,1.66
2018-12-12T09:51:39.795Z,1.65
2018-12-12T09:54:16.347Z,1.62
2018-12-12T09:56:51.214Z,1.65
2018-12-12T09:59:25.612Z,1.60
2018-12-12T10:02:00.487Z,1.62
2018-12-12T10:04:36.173Z,1.61
2018-12-12T10:07:14.869Z,1.74
2018-12-12T10:13:00.802Z,1.66
2018-12-12T10:15:35.354Z,1.67
2018-12-12T10:18:13.491Z,1.65
2018-12-12T10:26:46.369Z,1.49
2018-12-12T10:29:21.078Z,1.64
2018-12-12T10:31:56.426Z,1.71
2018-12-12T10:34:32.243Z,1.85
2018-12-12T10:37:08.890Z,1.90
2018-12-12T10:39:47.399Z,1.84
2018-12-12T10:42:33.782Z,1.90
2018-12-12T10:48:08.237Z,1.92
2018-12-12T10:53:46.306Z,1.96
2018-12-12T10:56:28.056Z,1.90
2018-12-12T10:59:25.003Z,1.97
2018-12-12T11:04:55.510Z,1.85
2018-12-12T11:07:29.958Z,1.88
2018-12-12T11:10:11.172Z,1.84
2018-12-12T11:12:47.949Z,1.86
2018-12-12T11:15:23.346Z,1.87
2018-12-12T11:18:04.526Z,1.84
2018-12-12T11:20:45.930Z,1.71
2018-12-12T11:23:21.215Z,1.62
2018-12-12T11:25:55.977Z,1.53
2018-12-12T11:28:30.534Z,1.71
2018-12-12T11:31:05.481Z,1.72
2018-12-12T11:33:40.186Z,1.71
2018-12-12T11:36:14.690Z,1.80
2018-12-12T11:38:49.397Z,1.84
2018-12-12T11:41:24.128Z,1.83
2018-12-12T11:43:58.669Z,1.80
2018-12-12T11:46:33.300Z,1.74
2018-12-12T11:49:08.223Z,1.69
2018-12-12T11:51:43.014Z,1.78
2018-12-12T11:57:16.981Z,1.86
2018-12-12T11:59:57.009Z,1.78
2018-12-12T12:02:35.630Z,1.82
2018-12-12T12:05:09.022Z,1.93
2018-12-12T12:10:46.366Z,2.02
2018-12-12T12:13:24.909Z,1.97
2018-12-12T12:16:14.121Z,1.78
2018-12-12T12:18:52.177Z,1.80
2018-12-12T12:21:44.859Z,1.71
2018-12-12T12:24:29.685Z,1.69
2018-12-12T12:30:00.586Z,1.65
2018-12-12T12:32:35.954Z,1.69
2018-12-12T12:35:10.958Z,1.83
2018-12-12T12:37:45.475Z,1.82
2018-12-12T12:40:20.265Z,1.99
2018-12-12T12:42:55.254Z,1.91
2018-12-12T12:45:30.014Z,1.99
2018-12-12T12:48:05.558Z,2.04
2018-12-12T12:50:40.787Z,2.01
2018-12-12T12:53:15.277Z,2.12
2018-12-12T12:55:50.035Z,2.07
2018-12-12T13:01:20.469Z,2.05
2018-12-12T13:03:55.535Z,2.07
2018-12-12T13:06:30.691Z,2.14
2018-12-12T13:09:08.074Z,2.13
2018-12-12T13:11:43.967Z,2.17
2018-12-12T13:14:19.210Z,2.19
2018-12-12T13:16:53.653Z,2.16
2018-12-12T13:19:28.037Z,2.11
2018-12-12T13:22:02.955Z,2.19
2018-12-12T13:24:37.563Z,2.17
2018-12-12T13:27:34.860Z,2.19
2018-12-12T13:30:10.545Z,2.16
2018-12-12T13:32:45.130Z,2.21
2018-12-12T13:35:20.021Z,2.26
2018-12-12T13:37:54.321Z,2.19
2018-12-12T13:40:29.161Z,2.19
2018-12-12T13:43:04.005Z,2.16
2018-12-12T13:45:38.764Z,2.12
2018-12-12T13:48:13.377Z,2.13
2018-12-12T13:50:47.906Z,2.19
2018-12-12T13:53:23.214Z,2.15
2018-12-12T13:55:58.050Z,2.23
2018-12-12T13:58:33.222Z,2.21
2018-12-12T14:01:07.550Z,2.16
2018-12-12T14:03:42.270Z,2.12
2018-12-12T14:06:16.762Z,2.09
2018-12-12T14:08:51.306Z,2.12
2018-12-12T14:11:26.133Z,2.21
2018-12-12T14:14:00.498Z,2.18
2018-12-12T14:16:35.741Z,2.23
2018-12-12T14:19:10.606Z,2.19
2018-12-12T14:21:45.107Z,2.20
2018-12-12T14:24:19.798Z,2.19
2018-12-12T14:26:54.190Z,2.17
2018-12-12T14:29:28.611Z,2.26
2018-12-12T14:32:02.913Z,2.20
2018-12-12T14:34:37.397Z,2.16
2018-12-12T14:39:50.299Z,2.14
2018-12-12T14:42:25.174Z,2.15
2018-12-12T14:44:59.973Z,2.12
2018-12-12T14:47:34.320Z,2.16
2018-12-12T14:50:09.369Z,2.17
2018-12-12T14:52:44.020Z,2.21
2018-12-12T14:55:18.574Z,2.18
2018-12-12T14:57:53.390Z,2.20
2018-12-12T15:00:28.645Z,2.16
2018-12-12T15:03:03.277Z,2.12
2018-12-12T15:05:38.170Z,2.21
2018-12-12T15:08:13.000Z,2.15
2018-12-12T15:10:47.945Z,2.19
2018-12-12T15:13:22.897Z,2.21
2018-12-12T15:16:00.820Z,2.24
2018-12-12T15:18:35.798Z,2.18
2018-12-12T15:21:10.796Z,2.17
2018-12-12T15:23:45.730Z,2.14
2018-12-12T15:26:20.051Z,2.19
2018-12-12T15:28:54.976Z,2.10
2018-12-12T15:31:29.666Z,2.14
2018-12-12T15:34:04.518Z,2.13
2018-12-12T15:36:45.386Z,2.06
2018-12-12T15:39:20.379Z,2.03
2018-12-12T15:41:55.073Z,2.08
2018-12-12T15:44:29.906Z,2.06
2018-12-12T15:47:04.957Z,2.07
2018-12-12T15:49:39.373Z,2.07
2018-12-12T15:52:24.132Z,2.07
2018-12-12T15:54:58.884Z,2.05
2018-12-12T15:57:35.502Z,2.03
2018-12-12T16:00:10.962Z,2.05
2018-12-12T16:02:46.118Z,2.00
2018-12-12T16:05:22.577Z,2.09
2018-12-12T16:07:57.331Z,2.07
2018-12-12T16:10:31.644Z,1.99
2018-12-12T16:13:06.433Z,1.98
2018-12-12T16:15:41.435Z,2.03
2018-12-12T16:18:18.946Z,2.00
2018-12-12T16:20:54.873Z,1.98
2018-12-12T16:23:29.463Z,1.99
2018-12-12T16:26:09.641Z,2.01
2018-12-12T16:28:44.237Z,2.01
2018-12-12T16:31:19.119Z,2.05
2018-12-12T16:33:53.612Z,2.04
2018-12-12T16:36:28.867Z,2.00
2018-12-12T16:39:16.129Z,1.99
2018-12-12T16:41:54.180Z,2.03
2018-12-12T16:44:36.218Z,1.99
2018-12-12T16:50:16.343Z,1.98
2018-12-12T16:53:04.634Z,1.93
2018-12-12T16:55:55.227Z,1.97
2018-12-12T16:58:32.035Z,2.00
2018-12-12T17:01:19.131Z,1.96
2018-12-12T17:04:00.206Z,1.98
2018-12-12T17:06:46.588Z,1.94
2018-12-12T17:09:20.892Z,1.94
2018-12-12T17:11:56.372Z,1.90
2018-12-12T17:14:30.905Z,1.87
2018-12-12T17:17:05.905Z,1.83
2018-12-12T17:19:40.513Z,1.79
2018-12-12T17:22:15.742Z,1.85
2018-12-12T17:24:50.721Z,1.63
2018-12-12T17:27:26.533Z,1.65
2018-12-12T17:30:01.315Z,1.68
2018-12-12T17:32:36.447Z,1.72
2018-12-12T17:35:11.865Z,1.60
2018-12-12T17:37:47.411Z,1.54
2018-12-12T17:40:21.782Z,1.43
2018-12-12T17:42:56.750Z,1.18
2018-12-12T17:45:31.062Z,1.15
2018-12-12T17:48:05.947Z,1.11
2018-12-12T17:50:40.444Z,1.07
2018-12-12T17:53:14.883Z,1.14
2018-12-12T17:55:49.710Z,1.13
2018-12-12T17:58:25.752Z,1.18
2018-12-12T18:01:01.495Z,1.06
2018-12-12T18:03:36.645Z,1.07
2018-12-12T18:06:16.726Z,1.02
2018-12-12T18:08:51.319Z,0.81
2018-12-12T18:11:26.315Z,0.85
2018-12-12T18:14:01.218Z,0.83
2018-12-12T18:16:36.704Z,0.69
2018-12-12T18:19:11.278Z,0.68
2018-12-12T18:21:46.439Z,0.55
2018-12-12T18:24:20.950Z,0.35
2018-12-12T18:26:56.256Z,0.53
2018-12-12T18:29:30.675Z,0.49
2018-12-12T18:32:06.041Z,0.25
2018-12-12T18:34:40.591Z,0.39
2018-12-12T18:37:15.523Z,0.45
2018-12-12T18:39:51.639Z,0.62
2018-12-12T18:42:26.502Z,0.49
2018-12-12T18:45:01.616Z,0.44
2018-12-12T18:47:38.705Z,0.46
2018-12-12T18:50:14.125Z,0.51
2018-12-12T18:55:35.814Z,0.71
2018-12-12T18:58:11.079Z,0.80
2018-12-12T19:00:46.762Z,0.71
2018-12-12T19:03:22.215Z,0.58
2018-12-12T19:05:59.401Z,0.69
2018-12-12T19:08:44.344Z,0.57
2018-12-12T19:11:21.795Z,0.57
2018-12-12T19:13:59.348Z,0.39
2018-12-12T19:16:36.000Z,0.36
2018-12-12T19:19:12.616Z,0.52
2018-12-12T19:21:48.832Z,0.73
2018-12-12T19:24:24.197Z,0.77
2018-12-12T19:27:00.290Z,0.75
2018-12-12T19:29:35.538Z,0.88
2018-12-12T19:32:10.717Z,1.02
2018-12-12T19:34:49.885Z,1.03
2018-12-12T19:37:25.776Z,0.89
2018-12-12T19:40:01.787Z,0.97
2018-12-12T19:42:36.742Z,0.99
2018-12-12T19:45:11.073Z,0.92
2018-12-12T19:47:45.724Z,1.04
2018-12-12T19:50:20.702Z,0.98
2018-12-12T19:52:55.252Z,1.03
2018-12-12T19:55:30.797Z,0.92
2018-12-12T19:58:06.037Z,0.75
2018-12-12T20:00:41.130Z,0.65
2018-12-12T20:03:16.064Z,0.83
2018-12-12T20:05:51.422Z,0.74
2018-12-12T20:08:26.854Z,0.76
2018-12-12T20:11:01.770Z,0.83
2018-12-12T20:13:36.371Z,0.88
2018-12-12T20:16:10.982Z,0.94
2018-12-12T20:18:45.747Z,0.98
2018-12-12T20:21:20.117Z,0.93
2018-12-12T20:23:55.043Z,0.92
2018-12-12T20:26:30.309Z,0.97
2018-12-12T20:29:05.448Z,0.97
2018-12-12T20:31:39.770Z,0.89
2018-12-12T20:34:14.181Z,0.89
2018-12-12T20:36:48.554Z,0.84
2018-12-12T20:39:23.386Z,0.80
2018-12-12T20:41:57.656Z,0.82
2018-12-12T20:44:31.957Z,0.82
2018-12-12T20:47:06.305Z,0.72
2018-12-12T20:49:40.725Z,0.77
2018-12-12T20:52:15.923Z,0.73
2018-12-12T20:54:50.650Z,0.65
2018-12-12T20:57:25.438Z,0.59
2018-12-12T21:00:00.197Z,0.64
2018-12-12T21:02:35.782Z,0.60
2018-12-12T21:05:10.634Z,0.56
2018-12-12T21:07:45.278Z,0.55
2018-12-12T21:10:20.514Z,0.54
2018-12-12T21:12:55.609Z,0.51
2018-12-12T21:15:30.085Z,0.55
2018-12-12T21:18:05.237Z,0.54
2018-12-12T21:20:39.782Z,0.49
2018-12-12T21:23:14.190Z,0.51
2018-12-12T21:25:50.071Z,0.49
2018-12-12T21:28:24.858Z,0.51
2018-12-12T21:33:58.969Z,0.49
2018-12-12T21:36:34.010Z,0.47
2018-12-12T21:39:09.316Z,0.45
2018-12-12T21:41:44.174Z,0.47
2018-12-12T21:44:19.044Z,0.46
2018-12-12T21:46:53.345Z,0.49
2018-12-12T21:49:28.513Z,0.48
2018-12-12T21:54:59.859Z,0.49
2018-12-12T21:57:34.481Z,0.51
2018-12-12T22:00:15.581Z,0.52
2018-12-12T22:02:50.465Z,0.47
2018-12-12T22:05:25.142Z,0.50
2018-12-12T22:07:59.733Z,0.54
2018-12-12T22:10:34.293Z,0.51
2018-12-12T22:13:09.500Z,0.54
2018-12-12T22:15:43.945Z,0.56
2018-12-12T22:18:18.374Z,0.59
2018-12-12T22:20:55.925Z,0.66
2018-12-12T22:23:30.447Z,0.67
2018-12-12T22:26:05.255Z,0.64
2018-12-12T22:28:39.641Z,0.65
2018-12-12T22:31:14.061Z,0.66
2018-12-12T22:33:48.794Z,0.68
2018-12-12T22:36:23.377Z,0.73
2018-12-12T22:38:59.147Z,0.70
2018-12-12T22:41:37.926Z,0.77
2018-12-12T22:44:12.897Z,0.77
2018-12-12T22:46:47.562Z,0.73
2018-12-12T22:49:22.295Z,0.73
2018-12-12T22:51:56.859Z,0.77
2018-12-12T22:54:31.270Z,0.75
2018-12-12T22:57:05.694Z,0.51
2018-12-12T22:59:40.849Z,0.46
2018-12-12T23:02:15.549Z,0.55
2018-12-12T23:04:50.462Z,0.58
2018-12-12T23:10:18.574Z,0.60
2018-12-12T23:12:52.935Z,0.64
2018-12-12T23:15:27.361Z,0.63
2018-12-12T23:18:02.808Z,0.63
2018-12-12T23:20:37.596Z,0.79
2018-12-12T23:23:12.698Z,0.63
2018-12-12T23:25:47.670Z,0.56
2018-12-12T23:28:22.014Z,0.57
2018-12-12T23:30:57.126Z,0.70
2018-12-12T23:33:31.778Z,0.65
2018-12-12T23:36:06.561Z,0.68
2018-12-12T23:38:57.782Z,0.60
2018-12-12T23:41:32.178Z,0.41
2018-12-12T23:44:06.859Z,0.48
2018-12-12T23:46:41.709Z,0.47
2018-12-12T23:49:16.234Z,0.37
2018-12-12T23:51:51.557Z,0.43
2018-12-12T23:54:26.193Z,0.30
2018-12-12T23:57:00.986Z,0.47
2018-12-12T23:59:35.630Z,0.21
